Skip Navigation Links Skip Navigation Links

Current Weather

Kyiv, Ukraine

For information only: do not use for flight planning or navigation.
Latest weather
Observation time Tuesday, October 19, 2021 11:30 AM EEST
Local time Tuesday, October 19, 2021 12:06 PM EEST
Flight conditions Visual Meteorological Conditions
Winds
Wind direction West-Northwest (300°)
Winds variable from 270° to 330°
Wind speed 11 mph
Visibility 6.2 mi.
Sky condition
Ceiling unlimited
Sky clear
Temperature 48°F
Dewpoint 34°F
Altimeter 30.24 in.Hg
Derived measurements
Relative humidity 57%
Wind chill 43°F
Density altitude -435 ft.
Remarks
Ceiling and visibility OK.
No significant changes expected in the next two hours.
METAR UKKK 190830Z 30005MPS 270V330 CAVOK 09/01 Q1024 R26/70D NOSIG

Settings

Location code

InnerDrive.Weather 4.0.6770.0 Release CLR 4.0.30319.42000
Copyright ©2018 Inner Drive Technology. All rights reserved. Portions Copyright ©1986-2018 David Braverman.

Find weather

Site navigation


Skip Navigation Links

Place info

Page info

PayPal - The safer, easier way to pay online!

Return home.

Copyright ©2021 Inner Drive Technology. Purveyors of fine, hand-crafted computer software. Page printed 2021-10-19T09:06:44 UTC.